createdAt,value
2023-03-29T04:15:09.924Z,98386.89
2023-03-29T04:17:42.032Z,98407.91
2023-03-29T04:20:24.490Z,98400.95
2023-03-29T04:22:56.137Z,98400.46
2023-03-29T04:25:25.019Z,98408.61
2023-03-29T04:28:30.794Z,98407.94
2023-03-29T04:31:13.772Z,98403.70
2023-03-29T04:40:26.634Z,98403.68
2023-03-29T04:43:08.242Z,98419.09
2023-03-29T04:45:38.395Z,98408.66
2023-03-29T04:48:13.922Z,98417.66
2023-03-29T04:50:48.444Z,98415.39
2023-03-29T04:53:18.048Z,98412.19
2023-03-29T04:55:47.470Z,98409.75
2023-03-29T04:58:25.250Z,98424.19
2023-03-29T05:00:58.405Z,98416.77
2023-03-29T05:03:45.384Z,98422.33
2023-03-29T05:06:19.365Z,98430.05
2023-03-29T05:08:48.747Z,98432.75
2023-03-29T05:11:27.994Z,98430.35
2023-03-29T05:14:00.911Z,98426.55
2023-03-29T05:16:30.508Z,98420.27
2023-03-29T05:18:59.669Z,98437.48
2023-03-29T05:21:30.958Z,98441.37
2023-03-29T05:24:01.247Z,98447.11
2023-03-29T05:26:52.619Z,98442.65
2023-03-29T05:29:23.720Z,98441.66
2023-03-29T05:31:59.893Z,98440.20
2023-03-29T05:34:30.201Z,98439.90
2023-03-29T05:37:01.743Z,98433.23
2023-03-29T05:39:35.725Z,98439.55
2023-03-29T05:42:06.590Z,98441.05
2023-03-29T05:44:46.958Z,98418.17
2023-03-29T05:47:19.520Z,98434.70
2023-03-29T05:49:47.962Z,98437.45
2023-03-29T05:52:24.171Z,98438.67
2023-03-29T05:54:53.052Z,98439.43
2023-03-29T05:57:22.336Z,98440.67
2023-03-29T05:59:51.044Z,98438.29
2023-03-29T06:02:20.252Z,98444.62
2023-03-29T06:04:52.664Z,98446.23
2023-03-29T06:07:39.112Z,98435.70
2023-03-29T06:10:26.334Z,98432.73
2023-03-29T06:13:01.061Z,98441.95
2023-03-29T06:15:32.141Z,98433.02
2023-03-29T06:18:06.259Z,98443.05
2023-03-29T06:20:38.382Z,98438.39
2023-03-29T06:23:11.576Z,98425.90
2023-03-29T06:25:40.698Z,98442.19
2023-03-29T06:28:10.173Z,98451.29
2023-03-29T06:30:39.582Z,98449.13
2023-03-29T06:33:09.944Z,98449.77
2023-03-29T06:35:49.747Z,98451.70
2023-03-29T06:38:26.890Z,98475.90
2023-03-29T06:41:28.898Z,98460.56
2023-03-29T06:44:10.585Z,98467.88
2023-03-29T06:46:50.265Z,98479.06
2023-03-29T06:49:19.118Z,98485.60
2023-03-29T06:52:00.295Z,98484.49
2023-03-29T06:54:28.685Z,98489.16
2023-03-29T06:57:08.114Z,98493.54
2023-03-29T06:59:38.337Z,98500.30
2023-03-29T07:02:20.650Z,98492.16
2023-03-29T07:05:01.730Z,98512.11
2023-03-29T07:07:53.645Z,98509.64
2023-03-29T07:10:39.883Z,98513.14
2023-03-29T07:13:30.747Z,98508.36
2023-03-29T07:16:00.215Z,98512.41
2023-03-29T07:18:55.376Z,98505.09
2023-03-29T07:21:42.778Z,98528.70
2023-03-29T07:24:13.310Z,98515.35
2023-03-29T07:26:52.250Z,98506.91
2023-03-29T07:29:29.619Z,98536.33
2023-03-29T07:31:58.525Z,98529.52
2023-03-29T07:34:49.523Z,98524.37
2023-03-29T07:37:25.510Z,98543.13
2023-03-29T07:39:54.165Z,98539.75
2023-03-29T07:42:39.753Z,98543.11
2023-03-29T07:45:10.588Z,98540.62
2023-03-29T07:47:49.143Z,98542.71
2023-03-29T07:50:18.430Z,98547.08
2023-03-29T07:52:49.365Z,98559.48
2023-03-29T07:55:17.915Z,98548.94
2023-03-29T07:58:09.645Z,98549.59
2023-03-29T08:00:38.722Z,98560.08
2023-03-29T08:03:39.922Z,98547.52
2023-03-29T08:06:08.980Z,98563.36
2023-03-29T08:08:38.771Z,98552.58
2023-03-29T08:11:12.797Z,98554.50
2023-03-29T08:14:13.239Z,98569.84
2023-03-29T08:16:58.049Z,98583.98
2023-03-29T08:19:27.699Z,98589.33
2023-03-29T08:22:05.808Z,98587.18
2023-03-29T08:25:10.303Z,98572.66
2023-03-29T08:27:43.544Z,98598.61
2023-03-29T08:30:15.663Z,98584.20
2023-03-29T08:32:49.968Z,98592.14
2023-03-29T08:35:20.492Z,98603.17
2023-03-29T08:38:12.774Z,98589.75
2023-03-29T08:40:42.023Z,98602.62
2023-03-29T08:43:24.688Z,98611.98
2023-03-29T08:46:18.469Z,98611.72
2023-03-29T08:48:51.155Z,98608.42
2023-03-29T08:51:36.834Z,98594.42
2023-03-29T08:54:08.284Z,98608.50
2023-03-29T08:56:49.990Z,98610.16
2023-03-29T08:59:28.441Z,98620.19
2023-03-29T09:01:58.478Z,98617.36
2023-03-29T09:04:35.721Z,98628.59
2023-03-29T09:07:20.246Z,98626.98
2023-03-29T09:09:48.924Z,98628.27
2023-03-29T09:12:52.351Z,98634.19
2023-03-29T09:15:28.764Z,98641.19
2023-03-29T09:18:13.841Z,98641.31
2023-03-29T09:21:11.632Z,98635.38
2023-03-29T09:23:48.467Z,98637.61
2023-03-29T09:26:31.644Z,98635.91
2023-03-29T09:29:38.715Z,98651.29
2023-03-29T09:32:23.416Z,98650.70
2023-03-29T09:35:18.823Z,98643.98
2023-03-29T09:37:48.766Z,98656.85
2023-03-29T09:40:41.688Z,98652.66
2023-03-29T09:43:18.556Z,98653.84
2023-03-29T09:45:51.783Z,98661.11
2023-03-29T09:48:20.094Z,98653.48
2023-03-29T09:50:53.184Z,98657.30
2023-03-29T09:53:22.079Z,98648.61
2023-03-29T09:56:00.107Z,98672.33
2023-03-29T09:58:46.692Z,98669.19
2023-03-29T10:01:17.781Z,98665.17
2023-03-29T10:03:52.548Z,98672.91
2023-03-29T10:06:23.456Z,98675.69
2023-03-29T10:08:57.972Z,98674.94
2023-03-29T10:11:38.170Z,98664.16
2023-03-29T10:14:33.829Z,98674.75
2023-03-29T10:17:06.427Z,98677.23
2023-03-29T10:19:35.835Z,98676.67
2023-03-29T10:22:18.932Z,98684.37
2023-03-29T10:24:52.418Z,98678.08
2023-03-29T10:27:28.236Z,98666.24
2023-03-29T10:30:00.648Z,98688.86
2023-03-29T10:32:34.565Z,98689.17
2023-03-29T10:35:11.073Z,98682.67
2023-03-29T10:37:44.956Z,98688.30
2023-03-29T10:40:27.738Z,98675.86
2023-03-29T10:42:59.185Z,98684.75
2023-03-29T10:45:32.090Z,98682.58
2023-03-29T10:48:00.683Z,98678.59
2023-03-29T10:50:38.453Z,98679.89
2023-03-29T10:53:20.442Z,98692.55
2023-03-29T10:55:55.170Z,98686.15
2023-03-29T10:58:55.698Z,98690.48
2023-03-29T11:01:30.284Z,98685.55
2023-03-29T11:04:02.485Z,98689.10
2023-03-29T11:07:27.508Z,98691.41
2023-03-29T11:10:05.405Z,98693.00
2023-03-29T11:12:58.665Z,98684.67
2023-03-29T11:16:02.879Z,98689.54
2023-03-29T11:19:10.478Z,98679.91
2023-03-29T11:22:01.113Z,98688.66
2023-03-29T11:25:10.822Z,98695.42
2023-03-29T11:27:45.344Z,98687.44
2023-03-29T11:30:57.407Z,98674.17
2023-03-29T11:33:33.979Z,98681.09
2023-03-29T11:36:12.997Z,98688.70
2023-03-29T11:38:54.121Z,98701.18
2023-03-29T11:41:27.219Z,98696.52
2023-03-29T11:44:11.869Z,98691.00
2023-03-29T11:46:48.392Z,98704.81
2023-03-29T11:49:19.874Z,98707.08
2023-03-29T11:51:57.902Z,98700.38
2023-03-29T11:54:36.716Z,98701.27
2023-03-29T11:57:29.941Z,98711.09
2023-03-29T12:00:06.181Z,98709.90
2023-03-29T12:02:46.945Z,98713.05
2023-03-29T12:05:33.236Z,98719.52
2023-03-29T12:08:16.683Z,98716.21
2023-03-29T12:10:46.855Z,98715.17
2023-03-29T12:13:15.441Z,98712.96
2023-03-29T12:15:53.247Z,98716.34
2023-03-29T12:18:33.809Z,98720.55
2023-03-29T12:21:04.188Z,98721.80
2023-03-29T12:23:35.276Z,98729.73
2023-03-29T12:26:35.288Z,98726.60
2023-03-29T12:29:26.718Z,98728.25
2023-03-29T12:32:30.038Z,98734.02
2023-03-29T12:35:31.295Z,98718.65
2023-03-29T12:38:19.707Z,98722.70
2023-03-29T12:41:22.080Z,98732.14
2023-03-29T12:44:13.736Z,98737.78
2023-03-29T12:46:55.395Z,98736.70
2023-03-29T12:49:36.400Z,98735.36
2023-03-29T12:52:16.296Z,98746.92
2023-03-29T12:54:56.472Z,98736.38
2023-03-29T12:57:41.657Z,98739.16
2023-03-29T13:00:13.661Z,98744.06
2023-03-29T13:02:46.105Z,98745.40
2023-03-29T13:05:29.521Z,98755.93
2023-03-29T13:07:58.400Z,98733.56
2023-03-29T13:10:38.557Z,98743.83
2023-03-29T13:13:24.221Z,98752.80
2023-03-29T13:15:53.075Z,98748.25
2023-03-29T13:19:04.322Z,98751.16
2023-03-29T13:21:33.443Z,98766.96
2023-03-29T13:24:31.590Z,98759.99
2023-03-29T13:27:06.440Z,98750.73
2023-03-29T13:29:53.735Z,98765.85
2023-03-29T13:32:46.583Z,98757.39
2023-03-29T13:35:21.524Z,98767.54
2023-03-29T13:38:09.253Z,98770.30
2023-03-29T13:40:42.244Z,98767.48
2023-03-29T13:43:21.471Z,98767.07
2023-03-29T13:45:59.348Z,98761.91
2023-03-29T13:48:33.764Z,98774.59
2023-03-29T13:51:08.356Z,98774.34
2023-03-29T13:53:40.083Z,98768.34
2023-03-29T13:56:12.256Z,98757.24
2023-03-29T13:58:51.683Z,98765.09
2023-03-29T14:01:33.160Z,98778.69
2023-03-29T14:04:02.001Z,98784.81
2023-03-29T14:06:32.987Z,98782.04
2023-03-29T14:09:05.238Z,98772.83
2023-03-29T14:11:35.288Z,98769.76
2023-03-29T14:14:08.681Z,98780.98
2023-03-29T14:16:39.109Z,98781.07
2023-03-29T14:19:40.556Z,98784.72
2023-03-29T14:22:11.287Z,98794.54
2023-03-29T14:24:48.377Z,98793.75
2023-03-29T14:27:17.053Z,98785.56
2023-03-29T14:29:47.824Z,98781.88
2023-03-29T14:32:18.216Z,98793.35
2023-03-29T14:34:50.268Z,98783.55
2023-03-29T14:37:24.018Z,98798.66
2023-03-29T14:39:52.360Z,98802.20
2023-03-29T14:42:24.731Z,98805.50
2023-03-29T14:44:58.257Z,98799.48
2023-03-29T14:47:28.702Z,98812.52
2023-03-29T14:50:00.934Z,98808.58
2023-03-29T14:52:32.075Z,98803.31
2023-03-29T14:55:02.180Z,98813.77
2023-03-29T14:57:35.884Z,98808.73
2023-03-29T15:00:19.329Z,98814.47
2023-03-29T15:02:51.218Z,98816.33
2023-03-29T15:05:40.563Z,98813.33
2023-03-29T15:08:34.017Z,98830.90
2023-03-29T15:11:23.546Z,98830.56
2023-03-29T15:13:54.546Z,98823.33
2023-03-29T15:16:23.605Z,98830.78
2023-03-29T15:18:52.824Z,98830.98
2023-03-29T15:21:21.617Z,98833.31
2023-03-29T15:23:57.305Z,98825.81
2023-03-29T15:26:31.277Z,98834.92
2023-03-29T15:29:15.131Z,98835.52
2023-03-29T15:31:46.576Z,98836.88
2023-03-29T15:34:33.889Z,98841.40
2023-03-29T15:37:04.457Z,98841.13
2023-03-29T15:39:35.291Z,98847.58
2023-03-29T15:42:03.833Z,98847.25
2023-03-29T15:44:33.655Z,98856.07
2023-03-29T15:47:02.393Z,98862.61
2023-03-29T15:49:30.913Z,98863.79
2023-03-29T15:51:59.956Z,98860.59
2023-03-29T15:54:32.501Z,98860.30
2023-03-29T15:57:03.946Z,98871.27
2023-03-29T15:59:34.074Z,98874.77
2023-03-29T16:02:03.694Z,98877.27
2023-03-29T16:04:32.655Z,98877.50
2023-03-29T16:07:02.569Z,98878.48
2023-03-29T16:09:31.656Z,98880.68
2023-03-29T16:12:03.109Z,98884.11
2023-03-29T16:14:34.028Z,98893.33
2023-03-29T16:17:03.438Z,98895.30
2023-03-29T16:19:32.444Z,98893.77
2023-03-29T16:22:02.566Z,98895.09
2023-03-29T16:24:32.369Z,98904.66
2023-03-29T16:27:02.051Z,98904.14
2023-03-29T16:29:31.130Z,98906.95
2023-03-29T16:32:00.380Z,98907.20
2023-03-29T16:34:30.294Z,98911.78
2023-03-29T16:36:58.969Z,98908.75
2023-03-29T16:39:29.601Z,98914.77
2023-03-29T16:41:58.296Z,98916.41
2023-03-29T16:44:28.301Z,98914.11
2023-03-29T16:46:59.660Z,98916.52
2023-03-29T16:49:28.793Z,98920.91
2023-03-29T16:52:01.954Z,98922.23
2023-03-29T16:54:32.976Z,98921.59
2023-03-29T16:57:02.098Z,98924.77
2023-03-29T16:59:31.700Z,98929.52
2023-03-29T17:02:00.777Z,98934.09
2023-03-29T17:04:29.536Z,98936.09
2023-03-29T17:06:58.764Z,98936.21
2023-03-29T17:09:29.877Z,98939.05
2023-03-29T17:11:58.911Z,98937.61
2023-03-29T17:14:27.805Z,98936.52
2023-03-29T17:16:58.943Z,98935.90
2023-03-29T17:19:28.035Z,98940.40
2023-03-29T17:21:57.219Z,98943.72
2023-03-29T17:24:29.999Z,98950.25
2023-03-29T17:26:58.815Z,98950.52
2023-03-29T17:29:27.575Z,98953.11
2023-03-29T17:31:56.437Z,98952.63
2023-03-29T17:34:27.423Z,98955.38
2023-03-29T17:36:56.603Z,98959.14
2023-03-29T17:39:27.546Z,98958.15
2023-03-29T17:41:56.135Z,98960.10
2023-03-29T17:44:27.269Z,98959.26
2023-03-29T17:46:55.786Z,98963.97
2023-03-29T17:49:24.750Z,98967.66
2023-03-29T17:51:53.845Z,98971.39
2023-03-29T17:54:22.623Z,98971.66
2023-03-29T17:56:51.893Z,98973.14
2023-03-29T17:59:21.633Z,98975.70
2023-03-29T18:01:52.306Z,98978.71
2023-03-29T18:04:21.463Z,98976.08
2023-03-29T18:06:50.200Z,98976.21
2023-03-29T18:09:26.683Z,98973.81
2023-03-29T18:11:57.042Z,98977.32
2023-03-29T18:14:26.353Z,98976.70
2023-03-29T18:16:59.602Z,98977.23
2023-03-29T18:19:29.761Z,98978.08
2023-03-29T18:21:58.337Z,98981.61
2023-03-29T18:24:27.738Z,98981.48
2023-03-29T18:26:56.331Z,98983.15
2023-03-29T18:29:25.829Z,98978.72
2023-03-29T18:31:54.571Z,98978.67
2023-03-29T18:34:23.718Z,98982.41
2023-03-29T18:36:54.036Z,98982.91
2023-03-29T18:39:23.027Z,98983.52
2023-03-29T18:41:52.434Z,98983.70
2023-03-29T18:44:22.278Z,98985.27
2023-03-29T18:46:50.933Z,98986.87
2023-03-29T18:49:19.723Z,98986.71
2023-03-29T18:51:50.053Z,98989.60
2023-03-29T18:54:18.736Z,98989.80
2023-03-29T18:56:47.987Z,98995.23
2023-03-29T18:59:19.070Z,98988.73
2023-03-29T19:01:48.013Z,98993.54
2023-03-29T19:04:16.647Z,98997.07
2023-03-29T19:06:46.464Z,98990.80
2023-03-29T19:09:15.139Z,98994.72
2023-03-29T19:11:44.052Z,98994.13
2023-03-29T19:14:15.892Z,98991.99
2023-03-29T19:16:44.482Z,98990.45
2023-03-29T19:19:13.379Z,98990.63
2023-03-29T19:21:44.509Z,98992.45
2023-03-29T19:24:13.704Z,98995.56
2023-03-29T19:26:42.802Z,98997.64
2023-03-29T19:29:11.894Z,99000.88
2023-03-29T19:31:40.649Z,98997.50
2023-03-29T19:34:12.548Z,98997.78
2023-03-29T19:36:41.331Z,98995.48
2023-03-29T19:39:10.117Z,98998.34
2023-03-29T19:41:40.039Z,99001.42
2023-03-29T19:44:10.558Z,98998.63
2023-03-29T19:46:41.223Z,98997.95
2023-03-29T19:49:13.968Z,99001.57
2023-03-29T19:51:44.089Z,99000.46
2023-03-29T19:54:13.696Z,99000.67
2023-03-29T19:56:43.263Z,98997.39
2023-03-29T19:59:15.140Z,98998.73
2023-03-29T20:01:51.335Z,98998.58
2023-03-29T20:04:21.183Z,98999.35
2023-03-29T20:06:49.818Z,99000.43
2023-03-29T20:09:18.909Z,98999.11
2023-03-29T20:11:48.722Z,98998.20
2023-03-29T20:14:17.719Z,99000.89
2023-03-29T20:16:46.900Z,99000.83
2023-03-29T20:19:18.166Z,99006.06
2023-03-29T20:21:46.845Z,99006.67
2023-03-29T20:24:17.076Z,99010.39
2023-03-29T20:26:45.770Z,99012.17
2023-03-29T20:29:17.935Z,99013.33
2023-03-29T20:31:47.366Z,99019.00
2023-03-29T20:34:18.366Z,99013.64
2023-03-29T20:36:47.228Z,99015.41
2023-03-29T20:39:19.085Z,99014.59
2023-03-29T20:41:48.042Z,99015.80
2023-03-29T20:44:19.808Z,99015.93
2023-03-29T20:54:05.600Z,99023.94
2023-03-29T20:56:40.076Z,99019.24
2023-03-29T20:59:13.615Z,99020.58
2023-03-29T21:01:42.692Z,99019.79
2023-03-29T21:04:11.808Z,99018.29
2023-03-29T21:06:41.726Z,99019.96
2023-03-29T21:09:10.605Z,99017.99
2023-03-29T21:11:41.757Z,99019.51
2023-03-29T21:14:11.464Z,99015.42
2023-03-29T21:16:44.040Z,99014.80
2023-03-29T21:19:15.186Z,99010.08
2023-03-29T21:21:45.069Z,99011.44
2023-03-29T21:24:14.186Z,99007.86
2023-03-29T21:26:43.903Z,99010.83
2023-03-29T21:29:12.893Z,99012.09
2023-03-29T21:31:42.129Z,99013.39
2023-03-29T21:34:10.891Z,99014.68
2023-03-29T21:36:40.988Z,99017.55
2023-03-29T21:39:09.675Z,99018.94
2023-03-29T21:41:38.366Z,99017.02
2023-03-29T21:44:09.607Z,99019.48
2023-03-29T21:46:39.701Z,99015.39
2023-03-29T21:49:08.517Z,99014.46
2023-03-29T21:51:37.721Z,99011.63
2023-03-29T21:54:06.707Z,99013.11
2023-03-29T21:56:35.808Z,99009.15
2023-03-29T21:59:04.532Z,99011.09
2023-03-29T22:01:33.330Z,99011.34
2023-03-29T22:04:02.065Z,99013.71
2023-03-29T22:06:31.261Z,99016.54
2023-03-29T22:09:01.079Z,99017.25
2023-03-29T22:11:29.870Z,99023.96
2023-03-29T22:13:58.879Z,99026.89
2023-03-29T22:16:28.527Z,99029.08
2023-03-29T22:18:58.270Z,99030.89
2023-03-29T22:21:31.673Z,99033.18
2023-03-29T22:24:01.581Z,99036.06
2023-03-29T22:26:31.580Z,99038.94
2023-03-29T22:29:03.048Z,99038.94
2023-03-29T22:31:32.696Z,99039.33
2023-03-29T22:34:03.184Z,99037.64
2023-03-29T22:36:32.178Z,99039.63
2023-03-29T22:39:01.001Z,99037.36
2023-03-29T22:41:29.852Z,99038.25
2023-03-29T22:43:59.878Z,99039.41
2023-03-29T22:46:30.778Z,99043.43
2023-03-29T22:49:00.521Z,99043.91
2023-03-29T22:51:31.970Z,99046.33
2023-03-29T22:54:00.860Z,99046.55
2023-03-29T22:56:29.644Z,99043.51
2023-03-29T22:58:59.162Z,99042.14
2023-03-29T23:01:27.793Z,99036.06
2023-03-29T23:03:57.062Z,99035.73
2023-03-29T23:06:25.823Z,99035.98
2023-03-29T23:08:54.410Z,99039.83
2023-03-29T23:11:28.930Z,99039.95
2023-03-29T23:13:57.720Z,99042.05
2023-03-29T23:16:26.944Z,99046.85
2023-03-29T23:18:55.819Z,99045.19
2023-03-29T23:21:25.632Z,99045.34
2023-03-29T23:23:54.790Z,99044.88
2023-03-29T23:26:23.600Z,99049.95
2023-03-29T23:28:54.762Z,99056.97
2023-03-29T23:31:24.599Z,99055.81
2023-03-29T23:33:53.965Z,99064.39
2023-03-29T23:36:23.271Z,99061.34
2023-03-29T23:38:52.864Z,99064.05
2023-03-29T23:41:21.345Z,99063.11
2023-03-29T23:43:54.035Z,99062.65
2023-03-29T23:46:22.831Z,99073.77
2023-03-29T23:48:51.599Z,99072.58
2023-03-29T23:51:23.682Z,99076.83
2023-03-29T23:53:52.864Z,99077.16
2023-03-29T23:56:29.325Z,99078.89
2023-03-29T23:58:58.214Z,99075.77
